sensor_id;sensor_type;location;lat;lon;timestamp;temperature;humidity
2489;DHT22;1255;48.716;9.124;2022-12-19T00:00:34;-1.60;99.90
2489;DHT22;1255;48.716;9.124;2022-12-19T00:03:02;-1.60;99.90
2489;DHT22;1255;48.716;9.124;2022-12-19T00:05:29;-1.60;99.90
2489;DHT22;1255;48.716;9.124;2022-12-19T00:07:55;-1.60;99.90
2489;DHT22;1255;48.716;9.124;2022-12-19T00:10:22;-1.60;99.90
2489;DHT22;1255;48.716;9.124;2022-12-19T00:12:49;-1.60;99.90
2489;DHT22;1255;48.716;9.124;2022-12-19T00:15:16;-1.50;99.90
2489;DHT22;1255;48.716;9.124;2022-12-19T00:17:42;-1.60;99.90
2489;DHT22;1255;48.716;9.124;2022-12-19T00:20:11;-1.60;99.90
2489;DHT22;1255;48.716;9.124;2022-12-19T00:22:38;-1.60;99.90
2489;DHT22;1255;48.716;9.124;2022-12-19T00:25:05;-1.60;99.90
2489;DHT22;1255;48.716;9.124;2022-12-19T00:27:33;-1.60;99.90
2489;DHT22;1255;48.716;9.124;2022-12-19T00:30:00;-1.50;99.90
2489;DHT22;1255;48.716;9.124;2022-12-19T00:32:27;-1.50;99.90
2489;DHT22;1255;48.716;9.124;2022-12-19T00:34:53;-1.50;99.90
2489;DHT22;1255;48.716;9.124;2022-12-19T00:37:21;-1.60;99.90
2489;DHT22;1255;48.716;9.124;2022-12-19T00:39:48;-1.60;99.90
2489;DHT22;1255;48.716;9.124;2022-12-19T00:42:15;-1.60;99.90
2489;DHT22;1255;48.716;9.124;2022-12-19T00:44:41;-1.70;99.90
2489;DHT22;1255;48.716;9.124;2022-12-19T00:47:08;-1.70;99.90
2489;DHT22;1255;48.716;9.124;2022-12-19T00:49:35;-1.70;99.90
2489;DHT22;1255;48.716;9.124;2022-12-19T00:52:02;-1.70;99.90
2489;DHT22;1255;48.716;9.124;2022-12-19T00:54:30;-1.70;99.90
2489;DHT22;1255;48.716;9.124;2022-12-19T00:56:56;-1.60;99.90
2489;DHT22;1255;48.716;9.124;2022-12-19T00:59:23;-1.60;99.90
2489;DHT22;1255;48.716;9.124;2022-12-19T01:01:50;-1.70;99.90
2489;DHT22;1255;48.716;9.124;2022-12-19T01:04:17;-1.60;99.90
2489;DHT22;1255;48.716;9.124;2022-12-19T01:06:43;-1.70;99.90
2489;DHT22;1255;48.716;9.124;2022-12-19T01:09:11;-1.60;99.90
2489;DHT22;1255;48.716;9.124;2022-12-19T01:11:39;-1.60;99.90
2489;DHT22;1255;48.716;9.124;2022-12-19T01:14:20;-1.60;99.90
2489;DHT22;1255;48.716;9.124;2022-12-19T01:16:47;-1.50;99.90
2489;DHT22;1255;48.716;9.124;2022-12-19T01:19:13;-1.50;99.90
2489;DHT22;1255;48.716;9.124;2022-12-19T01:21:40;-1.40;99.90
2489;DHT22;1255;48.716;9.124;2022-12-19T01:24:07;-1.40;99.90
2489;DHT22;1255;48.716;9.124;2022-12-19T01:26:33;-1.40;99.90
2489;DHT22;1255;48.716;9.124;2022-12-19T01:29:02;-1.30;99.90
2489;DHT22;1255;48.716;9.124;2022-12-19T01:31:29;-1.40;99.90
2489;DHT22;1255;48.716;9.124;2022-12-19T01:33:58;-1.30;99.90
2489;DHT22;1255;48.716;9.124;2022-12-19T01:36:24;-1.30;99.90
2489;DHT22;1255;48.716;9.124;2022-12-19T01:38:54;-1.30;99.90
2489;DHT22;1255;48.716;9.124;2022-12-19T01:41:21;-1.30;99.90
2489;DHT22;1255;48.716;9.124;2022-12-19T01:43:56;-1.30;99.90
2489;DHT22;1255;48.716;9.124;2022-12-19T01:46:26;-1.30;99.90
2489;DHT22;1255;48.716;9.124;2022-12-19T01:48:56;-1.20;99.90
2489;DHT22;1255;48.716;9.124;2022-12-19T01:51:24;-1.20;99.90
2489;DHT22;1255;48.716;9.124;2022-12-19T01:53:56;-1.20;99.90
2489;DHT22;1255;48.716;9.124;2022-12-19T01:56:28;-1.20;99.90
2489;DHT22;1255;48.716;9.124;2022-12-19T01:58:58;-1.10;99.90
2489;DHT22;1255;48.716;9.124;2022-12-19T02:01:27;-1.10;99.90
2489;DHT22;1255;48.716;9.124;2022-12-19T02:03:54;-1.20;99.90
2489;DHT22;1255;48.716;9.124;2022-12-19T02:06:22;-1.20;99.90
2489;DHT22;1255;48.716;9.124;2022-12-19T02:08:50;-1.10;99.90
2489;DHT22;1255;48.716;9.124;2022-12-19T02:11:18;-1.20;99.90
2489;DHT22;1255;48.716;9.124;2022-12-19T02:13:45;-1.10;99.90
2489;DHT22;1255;48.716;9.124;2022-12-19T02:16:18;-1.10;99.90
2489;DHT22;1255;48.716;9.124;2022-12-19T02:18:56;-1.10;99.90
2489;DHT22;1255;48.716;9.124;2022-12-19T02:21:38;-1.10;99.90
2489;DHT22;1255;48.716;9.124;2022-12-19T02:24:31;-1.10;99.90
2489;DHT22;1255;48.716;9.124;2022-12-19T02:27:25;-1.10;99.90
2489;DHT22;1255;48.716;9.124;2022-12-19T02:30:07;-1.00;99.90
2489;DHT22;1255;48.716;9.124;2022-12-19T02:32:44;-1.00;99.90
2489;DHT22;1255;48.716;9.124;2022-12-19T02:35:21;-1.00;99.90
2489;DHT22;1255;48.716;9.124;2022-12-19T02:37:52;-1.00;99.90
2489;DHT22;1255;48.716;9.124;2022-12-19T02:40:25;-1.00;99.90
2489;DHT22;1255;48.716;9.124;2022-12-19T02:42:56;-1.00;99.90
2489;DHT22;1255;48.716;9.124;2022-12-19T02:45:24;-0.90;99.90
2489;DHT22;1255;48.716;9.124;2022-12-19T02:47:53;-0.90;99.90
2489;DHT22;1255;48.716;9.124;2022-12-19T02:50:20;-0.80;99.90
2489;DHT22;1255;48.716;9.124;2022-12-19T02:52:47;-0.80;99.90
2489;DHT22;1255;48.716;9.124;2022-12-19T02:55:19;-0.80;99.90
2489;DHT22;1255;48.716;9.124;2022-12-19T03:00:53;-0.70;99.90
2489;DHT22;1255;48.716;9.124;2022-12-19T03:03:30;-0.60;99.90
2489;DHT22;1255;48.716;9.124;2022-12-19T03:06:06;-0.60;99.90
2489;DHT22;1255;48.716;9.124;2022-12-19T03:08:43;-0.50;99.90
2489;DHT22;1255;48.716;9.124;2022-12-19T03:11:12;-0.50;99.90
2489;DHT22;1255;48.716;9.124;2022-12-19T03:13:44;-0.50;99.90
2489;DHT22;1255;48.716;9.124;2022-12-19T03:16:13;-0.50;99.90
2489;DHT22;1255;48.716;9.124;2022-12-19T03:18:41;-0.50;99.90
2489;DHT22;1255;48.716;9.124;2022-12-19T03:21:13;-0.40;99.90
2489;DHT22;1255;48.716;9.124;2022-12-19T03:23:41;-0.40;99.90
2489;DHT22;1255;48.716;9.124;2022-12-19T03:26:11;-0.40;99.90
2489;DHT22;1255;48.716;9.124;2022-12-19T03:28:43;-0.30;99.90
2489;DHT22;1255;48.716;9.124;2022-12-19T03:31:15;-0.30;99.90
2489;DHT22;1255;48.716;9.124;2022-12-19T03:33:46;-0.20;99.90
2489;DHT22;1255;48.716;9.124;2022-12-19T03:36:18;-0.20;99.90
2489;DHT22;1255;48.716;9.124;2022-12-19T03:38:46;-0.20;99.90
2489;DHT22;1255;48.716;9.124;2022-12-19T03:41:15;-0.10;99.90
2489;DHT22;1255;48.716;9.124;2022-12-19T03:44:05;-0.10;99.90
2489;DHT22;1255;48.716;9.124;2022-12-19T03:46:33;-0.10;99.90
2489;DHT22;1255;48.716;9.124;2022-12-19T03:49:04;0.00;99.90
2489;DHT22;1255;48.716;9.124;2022-12-19T03:51:36;0.00;99.90
2489;DHT22;1255;48.716;9.124;2022-12-19T03:54:09;0.00;99.90
2489;DHT22;1255;48.716;9.124;2022-12-19T03:56:40;0.00;99.90
2489;DHT22;1255;48.716;9.124;2022-12-19T03:59:12;0.10;99.90
2489;DHT22;1255;48.716;9.124;2022-12-19T04:01:42;0.10;99.90
2489;DHT22;1255;48.716;9.124;2022-12-19T04:04:11;0.10;99.90
2489;DHT22;1255;48.716;9.124;2022-12-19T04:06:39;0.20;99.90
2489;DHT22;1255;48.716;9.124;2022-12-19T04:09:07;0.20;99.90
2489;DHT22;1255;48.716;9.124;2022-12-19T04:11:39;0.30;99.90
2489;DHT22;1255;48.716;9.124;2022-12-19T04:14:11;0.30;99.90
2489;DHT22;1255;48.716;9.124;2022-12-19T04:16:44;0.30;99.90
2489;DHT22;1255;48.716;9.124;2022-12-19T04:19:17;0.30;99.90
2489;DHT22;1255;48.716;9.124;2022-12-19T04:21:50;0.30;99.90
2489;DHT22;1255;48.716;9.124;2022-12-19T04:24:22;0.30;99.90
2489;DHT22;1255;48.716;9.124;2022-12-19T04:26:51;0.40;99.90
2489;DHT22;1255;48.716;9.124;2022-12-19T04:29:20;0.40;99.90
2489;DHT22;1255;48.716;9.124;2022-12-19T04:31:48;0.40;99.90
2489;DHT22;1255;48.716;9.124;2022-12-19T04:34:19;0.50;99.90
2489;DHT22;1255;48.716;9.124;2022-12-19T04:36:46;0.50;99.90
2489;DHT22;1255;48.716;9.124;2022-12-19T04:39:13;0.50;99.90
2489;DHT22;1255;48.716;9.124;2022-12-19T04:41:40;0.50;99.90
2489;DHT22;1255;48.716;9.124;2022-12-19T04:44:07;0.50;99.90
2489;DHT22;1255;48.716;9.124;2022-12-19T04:46:33;0.50;99.90
2489;DHT22;1255;48.716;9.124;2022-12-19T04:49:00;0.50;99.90
2489;DHT22;1255;48.716;9.124;2022-12-19T04:51:28;0.60;99.90
2489;DHT22;1255;48.716;9.124;2022-12-19T04:53:55;0.60;99.90
2489;DHT22;1255;48.716;9.124;2022-12-19T04:56:22;0.60;99.90
2489;DHT22;1255;48.716;9.124;2022-12-19T04:58:48;0.50;99.90
2489;DHT22;1255;48.716;9.124;2022-12-19T05:01:15;0.50;99.90
2489;DHT22;1255;48.716;9.124;2022-12-19T05:03:42;0.50;99.90
2489;DHT22;1255;48.716;9.124;2022-12-19T05:06:11;0.50;99.90
2489;DHT22;1255;48.716;9.124;2022-12-19T05:08:41;0.60;99.90
2489;DHT22;1255;48.716;9.124;2022-12-19T05:11:10;0.60;99.90
2489;DHT22;1255;48.716;9.124;2022-12-19T05:13:37;0.60;99.90
2489;DHT22;1255;48.716;9.124;2022-12-19T05:16:06;0.60;99.90
2489;DHT22;1255;48.716;9.124;2022-12-19T05:18:34;0.60;99.90
2489;DHT22;1255;48.716;9.124;2022-12-19T05:21:01;0.60;99.90
2489;DHT22;1255;48.716;9.124;2022-12-19T05:23:28;0.60;99.90
2489;DHT22;1255;48.716;9.124;2022-12-19T05:25:58;0.60;99.90
2489;DHT22;1255;48.716;9.124;2022-12-19T05:28:25;0.60;99.90
2489;DHT22;1255;48.716;9.124;2022-12-19T05:31:01;0.60;99.90
2489;DHT22;1255;48.716;9.124;2022-12-19T05:33:28;0.70;99.90
2489;DHT22;1255;48.716;9.124;2022-12-19T05:35:56;0.70;99.90
2489;DHT22;1255;48.716;9.124;2022-12-19T05:38:22;0.80;99.90
2489;DHT22;1255;48.716;9.124;2022-12-19T05:40:49;0.80;99.90
2489;DHT22;1255;48.716;9.124;2022-12-19T05:43:17;0.90;99.90
2489;DHT22;1255;48.716;9.124;2022-12-19T05:45:44;0.90;99.90
2489;DHT22;1255;48.716;9.124;2022-12-19T05:48:10;0.90;99.90
2489;DHT22;1255;48.716;9.124;2022-12-19T05:50:38;0.90;99.90
2489;DHT22;1255;48.716;9.124;2022-12-19T05:53:04;0.90;99.90
2489;DHT22;1255;48.716;9.124;2022-12-19T05:55:31;1.00;99.90
2489;DHT22;1255;48.716;9.124;2022-12-19T05:57:58;1.00;99.90
2489;DHT22;1255;48.716;9.124;2022-12-19T06:00:26;1.00;99.90
2489;DHT22;1255;48.716;9.124;2022-12-19T06:02:53;1.00;99.90
2489;DHT22;1255;48.716;9.124;2022-12-19T06:05:20;1.00;99.90
2489;DHT22;1255;48.716;9.124;2022-12-19T06:07:46;1.00;99.90
2489;DHT22;1255;48.716;9.124;2022-12-19T06:10:13;1.10;99.90
2489;DHT22;1255;48.716;9.124;2022-12-19T06:12:40;1.10;99.90
2489;DHT22;1255;48.716;9.124;2022-12-19T06:15:07;1.00;99.90
2489;DHT22;1255;48.716;9.124;2022-12-19T06:17:36;1.10;99.90
2489;DHT22;1255;48.716;9.124;2022-12-19T06:20:03;1.00;99.90
2489;DHT22;1255;48.716;9.124;2022-12-19T06:22:31;1.00;99.90
2489;DHT22;1255;48.716;9.124;2022-12-19T06:24:57;1.10;99.90
2489;DHT22;1255;48.716;9.124;2022-12-19T06:27:24;1.20;99.90
2489;DHT22;1255;48.716;9.124;2022-12-19T06:29:51;1.20;99.90
2489;DHT22;1255;48.716;9.124;2022-12-19T06:32:18;1.20;99.90
2489;DHT22;1255;48.716;9.124;2022-12-19T06:34:46;1.20;99.90
2489;DHT22;1255;48.716;9.124;2022-12-19T06:37:13;1.20;99.90
2489;DHT22;1255;48.716;9.124;2022-12-19T06:39:39;1.30;99.90
2489;DHT22;1255;48.716;9.124;2022-12-19T06:42:07;1.30;99.90
2489;DHT22;1255;48.716;9.124;2022-12-19T06:44:49;1.30;99.90
2489;DHT22;1255;48.716;9.124;2022-12-19T06:47:16;1.30;99.90
2489;DHT22;1255;48.716;9.124;2022-12-19T06:49:43;1.30;99.90
2489;DHT22;1255;48.716;9.124;2022-12-19T06:52:12;1.40;99.90
2489;DHT22;1255;48.716;9.124;2022-12-19T06:54:38;1.40;99.90
2489;DHT22;1255;48.716;9.124;2022-12-19T06:57:05;1.40;99.90
2489;DHT22;1255;48.716;9.124;2022-12-19T06:59:32;1.40;99.90
2489;DHT22;1255;48.716;9.124;2022-12-19T07:02:02;1.30;99.90
2489;DHT22;1255;48.716;9.124;2022-12-19T07:04:34;1.40;99.90
2489;DHT22;1255;48.716;9.124;2022-12-19T07:07:03;1.40;99.90
2489;DHT22;1255;48.716;9.124;2022-12-19T07:09:32;1.40;99.90
2489;DHT22;1255;48.716;9.124;2022-12-19T07:12:00;1.40;99.90
2489;DHT22;1255;48.716;9.124;2022-12-19T07:14:26;1.40;99.90
2489;DHT22;1255;48.716;9.124;2022-12-19T07:16:54;1.40;99.90
2489;DHT22;1255;48.716;9.124;2022-12-19T07:19:24;1.40;99.90
2489;DHT22;1255;48.716;9.124;2022-12-19T07:21:51;1.40;99.90
2489;DHT22;1255;48.716;9.124;2022-12-19T07:24:18;1.50;99.90
2489;DHT22;1255;48.716;9.124;2022-12-19T07:26:46;1.50;99.90
2489;DHT22;1255;48.716;9.124;2022-12-19T07:29:15;1.50;99.90
2489;DHT22;1255;48.716;9.124;2022-12-19T07:31:42;1.50;99.90
2489;DHT22;1255;48.716;9.124;2022-12-19T07:34:09;1.60;99.90
2489;DHT22;1255;48.716;9.124;2022-12-19T07:36:36;1.60;99.90
2489;DHT22;1255;48.716;9.124;2022-12-19T07:39:03;1.60;99.90
2489;DHT22;1255;48.716;9.124;2022-12-19T07:41:30;1.70;99.90
2489;DHT22;1255;48.716;9.124;2022-12-19T07:49:08;1.80;99.90
2489;DHT22;1255;48.716;9.124;2022-12-19T07:51:35;1.80;99.90
2489;DHT22;1255;48.716;9.124;2022-12-19T07:54:02;1.90;99.90
2489;DHT22;1255;48.716;9.124;2022-12-19T07:56:30;1.90;99.90
2489;DHT22;1255;48.716;9.124;2022-12-19T07:58:57;1.90;99.90
2489;DHT22;1255;48.716;9.124;2022-12-19T08:01:28;1.90;99.90
2489;DHT22;1255;48.716;9.124;2022-12-19T08:03:56;2.00;99.90
2489;DHT22;1255;48.716;9.124;2022-12-19T08:06:29;2.10;99.90
2489;DHT22;1255;48.716;9.124;2022-12-19T08:08:56;2.10;99.90
2489;DHT22;1255;48.716;9.124;2022-12-19T08:11:23;2.10;99.90
2489;DHT22;1255;48.716;9.124;2022-12-19T08:13:52;2.20;99.90
2489;DHT22;1255;48.716;9.124;2022-12-19T08:16:19;2.20;99.90
2489;DHT22;1255;48.716;9.124;2022-12-19T08:18:46;2.20;99.90
2489;DHT22;1255;48.716;9.124;2022-12-19T08:21:13;2.20;99.90
2489;DHT22;1255;48.716;9.124;2022-12-19T08:23:41;2.30;99.90
2489;DHT22;1255;48.716;9.124;2022-12-19T08:26:11;2.40;99.90
2489;DHT22;1255;48.716;9.124;2022-12-19T08:28:38;2.40;99.90
2489;DHT22;1255;48.716;9.124;2022-12-19T08:31:06;2.50;99.90
2489;DHT22;1255;48.716;9.124;2022-12-19T08:33:33;2.60;99.90
2489;DHT22;1255;48.716;9.124;2022-12-19T08:36:02;2.60;99.90
2489;DHT22;1255;48.716;9.124;2022-12-19T08:38:29;2.70;99.90
2489;DHT22;1255;48.716;9.124;2022-12-19T08:40:58;2.80;99.90
2489;DHT22;1255;48.716;9.124;2022-12-19T08:43:25;2.80;99.90
2489;DHT22;1255;48.716;9.124;2022-12-19T08:45:52;2.90;99.90
2489;DHT22;1255;48.716;9.124;2022-12-19T08:48:19;2.90;99.90
2489;DHT22;1255;48.716;9.124;2022-12-19T08:50:50;2.90;99.90
2489;DHT22;1255;48.716;9.124;2022-12-19T08:53:17;2.90;99.90
2489;DHT22;1255;48.716;9.124;2022-12-19T08:55:45;3.00;99.90
2489;DHT22;1255;48.716;9.124;2022-12-19T08:58:14;3.00;99.90
2489;DHT22;1255;48.716;9.124;2022-12-19T09:00:42;3.00;99.90
2489;DHT22;1255;48.716;9.124;2022-12-19T09:03:09;3.10;99.90
2489;DHT22;1255;48.716;9.124;2022-12-19T09:05:35;3.10;99.90
2489;DHT22;1255;48.716;9.124;2022-12-19T09:08:03;3.20;99.90
2489;DHT22;1255;48.716;9.124;2022-12-19T09:10:30;3.20;99.90
2489;DHT22;1255;48.716;9.124;2022-12-19T09:12:57;3.30;99.90
2489;DHT22;1255;48.716;9.124;2022-12-19T09:15:25;3.40;99.90
2489;DHT22;1255;48.716;9.124;2022-12-19T09:17:52;3.40;99.90
2489;DHT22;1255;48.716;9.124;2022-12-19T09:20:18;3.40;99.90
2489;DHT22;1255;48.716;9.124;2022-12-19T09:22:51;3.50;99.90
2489;DHT22;1255;48.716;9.124;2022-12-19T09:25:24;3.60;99.90
2489;DHT22;1255;48.716;9.124;2022-12-19T09:31:21;3.80;99.90
2489;DHT22;1255;48.716;9.124;2022-12-19T09:33:49;3.90;99.90
2489;DHT22;1255;48.716;9.124;2022-12-19T09:36:17;4.00;99.90
2489;DHT22;1255;48.716;9.124;2022-12-19T09:38:45;4.20;99.90
2489;DHT22;1255;48.716;9.124;2022-12-19T09:41:29;4.40;99.90
2489;DHT22;1255;48.716;9.124;2022-12-19T09:44:05;4.70;99.90
2489;DHT22;1255;48.716;9.124;2022-12-19T09:46:48;4.80;99.90
2489;DHT22;1255;48.716;9.124;2022-12-19T09:49:18;4.80;99.90
2489;DHT22;1255;48.716;9.124;2022-12-19T09:51:52;4.70;99.90
2489;DHT22;1255;48.716;9.124;2022-12-19T09:54:24;4.60;99.90
2489;DHT22;1255;48.716;9.124;2022-12-19T09:57:13;4.60;99.90
2489;DHT22;1255;48.716;9.124;2022-12-19T09:59:45;4.70;99.90
2489;DHT22;1255;48.716;9.124;2022-12-19T10:02:33;4.80;99.90
2489;DHT22;1255;48.716;9.124;2022-12-19T10:05:14;4.90;99.90
2489;DHT22;1255;48.716;9.124;2022-12-19T10:07:42;5.20;99.90
2489;DHT22;1255;48.716;9.124;2022-12-19T10:10:13;5.40;99.90
2489;DHT22;1255;48.716;9.124;2022-12-19T10:13:11;5.70;99.90
2489;DHT22;1255;48.716;9.124;2022-12-19T10:15:49;5.80;99.90
2489;DHT22;1255;48.716;9.124;2022-12-19T10:18:35;5.90;99.90
2489;DHT22;1255;48.716;9.124;2022-12-19T10:21:07;5.70;99.90
2489;DHT22;1255;48.716;9.124;2022-12-19T10:23:55;5.60;99.90
2489;DHT22;1255;48.716;9.124;2022-12-19T10:26:28;5.50;99.90
2489;DHT22;1255;48.716;9.124;2022-12-19T10:29:24;5.50;99.90
2489;DHT22;1255;48.716;9.124;2022-12-19T10:31:58;5.40;99.90
2489;DHT22;1255;48.716;9.124;2022-12-19T10:34:34;5.50;99.90
2489;DHT22;1255;48.716;9.124;2022-12-19T10:37:11;5.70;99.90
2489;DHT22;1255;48.716;9.124;2022-12-19T10:39:48;6.40;99.90
2489;DHT22;1255;48.716;9.124;2022-12-19T10:42:25;7.70;99.90
2489;DHT22;1255;48.716;9.124;2022-12-19T10:44:54;8.70;99.90
2489;DHT22;1255;48.716;9.124;2022-12-19T10:47:22;9.20;99.90
2489;DHT22;1255;48.716;9.124;2022-12-19T10:49:51;9.50;99.90
2489;DHT22;1255;48.716;9.124;2022-12-19T10:52:48;9.60;99.90
2489;DHT22;1255;48.716;9.124;2022-12-19T10:55:45;9.70;99.90
2489;DHT22;1255;48.716;9.124;2022-12-19T10:58:22;8.90;99.90
2489;DHT22;1255;48.716;9.124;2022-12-19T11:01:00;8.40;99.90
2489;DHT22;1255;48.716;9.124;2022-12-19T11:03:27;7.80;99.90
2489;DHT22;1255;48.716;9.124;2022-12-19T11:05:56;7.50;99.90
2489;DHT22;1255;48.716;9.124;2022-12-19T11:08:25;7.40;99.90
2489;DHT22;1255;48.716;9.124;2022-12-19T11:10:53;7.40;99.90
2489;DHT22;1255;48.716;9.124;2022-12-19T11:13:24;7.70;99.90
2489;DHT22;1255;48.716;9.124;2022-12-19T11:15:53;7.90;99.90
2489;DHT22;1255;48.716;9.124;2022-12-19T11:18:21;8.30;99.90
2489;DHT22;1255;48.716;9.124;2022-12-19T11:20:59;8.90;99.90
2489;DHT22;1255;48.716;9.124;2022-12-19T11:23:28;9.80;99.90
2489;DHT22;1255;48.716;9.124;2022-12-19T11:25:57;10.40;99.90
2489;DHT22;1255;48.716;9.124;2022-12-19T11:28:30;11.00;99.90
2489;DHT22;1255;48.716;9.124;2022-12-19T11:31:02;11.40;99.90
2489;DHT22;1255;48.716;9.124;2022-12-19T11:33:30;11.70;99.90
2489;DHT22;1255;48.716;9.124;2022-12-19T11:36:01;11.60;99.90
2489;DHT22;1255;48.716;9.124;2022-12-19T11:38:38;11.30;99.90
2489;DHT22;1255;48.716;9.124;2022-12-19T11:41:12;10.20;99.90
2489;DHT22;1255;48.716;9.124;2022-12-19T11:43:48;9.60;99.90
2489;DHT22;1255;48.716;9.124;2022-12-19T11:46:44;9.30;99.90
2489;DHT22;1255;48.716;9.124;2022-12-19T11:49:22;9.10;99.90
2489;DHT22;1255;48.716;9.124;2022-12-19T11:51:56;9.00;99.90
2489;DHT22;1255;48.716;9.124;2022-12-19T11:54:29;8.80;99.90
2489;DHT22;1255;48.716;9.124;2022-12-19T11:56:58;8.80;99.90
2489;DHT22;1255;48.716;9.124;2022-12-19T11:59:29;8.50;99.90
2489;DHT22;1255;48.716;9.124;2022-12-19T12:02:14;8.30;99.90
2489;DHT22;1255;48.716;9.124;2022-12-19T12:07:56;8.60;99.90
2489;DHT22;1255;48.716;9.124;2022-12-19T12:10:29;8.60;99.90
2489;DHT22;1255;48.716;9.124;2022-12-19T12:13:05;8.70;99.90
2489;DHT22;1255;48.716;9.124;2022-12-19T12:15:44;8.70;99.90
2489;DHT22;1255;48.716;9.124;2022-12-19T12:18:25;8.90;99.90
2489;DHT22;1255;48.716;9.124;2022-12-19T12:21:02;9.10;99.90
2489;DHT22;1255;48.716;9.124;2022-12-19T12:23:36;9.20;99.90
2489;DHT22;1255;48.716;9.124;2022-12-19T12:26:12;8.80;99.90
2489;DHT22;1255;48.716;9.124;2022-12-19T12:28:52;8.20;99.90
2489;DHT22;1255;48.716;9.124;2022-12-19T12:31:36;8.00;99.90
2489;DHT22;1255;48.716;9.124;2022-12-19T12:34:20;7.70;99.90
2489;DHT22;1255;48.716;9.124;2022-12-19T12:36:59;7.50;99.90
2489;DHT22;1255;48.716;9.124;2022-12-19T12:39:38;7.30;99.90
2489;DHT22;1255;48.716;9.124;2022-12-19T12:42:14;7.00;99.90
2489;DHT22;1255;48.716;9.124;2022-12-19T12:44:47;6.90;99.90
2489;DHT22;1255;48.716;9.124;2022-12-19T12:47:19;6.90;99.90
2489;DHT22;1255;48.716;9.124;2022-12-19T12:49:52;6.80;99.90
2489;DHT22;1255;48.716;9.124;2022-12-19T12:52:24;6.90;99.90
2489;DHT22;1255;48.716;9.124;2022-12-19T12:54:56;7.00;99.90
2489;DHT22;1255;48.716;9.124;2022-12-19T12:57:35;7.10;99.90
2489;DHT22;1255;48.716;9.124;2022-12-19T13:00:21;7.20;99.90
2489;DHT22;1255;48.716;9.124;2022-12-19T13:02:52;7.40;99.90
2489;DHT22;1255;48.716;9.124;2022-12-19T13:05:34;7.40;99.90
2489;DHT22;1255;48.716;9.124;2022-12-19T13:08:27;7.40;99.90
2489;DHT22;1255;48.716;9.124;2022-12-19T13:11:02;7.40;99.90
2489;DHT22;1255;48.716;9.124;2022-12-19T13:13:51;7.50;99.90
2489;DHT22;1255;48.716;9.124;2022-12-19T13:16:48;7.60;99.90
2489;DHT22;1255;48.716;9.124;2022-12-19T13:19:18;7.50;99.90
2489;DHT22;1255;48.716;9.124;2022-12-19T13:22:20;7.60;99.90
2489;DHT22;1255;48.716;9.124;2022-12-19T13:24:49;7.60;99.90
2489;DHT22;1255;48.716;9.124;2022-12-19T13:27:34;7.50;99.90
2489;DHT22;1255;48.716;9.124;2022-12-19T13:30:17;7.30;99.90
2489;DHT22;1255;48.716;9.124;2022-12-19T13:33:06;7.20;99.90
2489;DHT22;1255;48.716;9.124;2022-12-19T13:35:34;7.00;99.90
2489;DHT22;1255;48.716;9.124;2022-12-19T13:38:13;6.90;99.90
2489;DHT22;1255;48.716;9.124;2022-12-19T13:40:55;6.80;99.90
2489;DHT22;1255;48.716;9.124;2022-12-19T13:43:34;6.80;99.90
2489;DHT22;1255;48.716;9.124;2022-12-19T13:46:31;6.80;99.90
2489;DHT22;1255;48.716;9.124;2022-12-19T13:49:04;6.60;99.90
2489;DHT22;1255;48.716;9.124;2022-12-19T13:51:40;6.50;99.90
2489;DHT22;1255;48.716;9.124;2022-12-19T13:54:18;6.40;99.90
2489;DHT22;1255;48.716;9.124;2022-12-19T13:56:45;6.30;99.90
2489;DHT22;1255;48.716;9.124;2022-12-19T13:59:21;6.20;99.90
2489;DHT22;1255;48.716;9.124;2022-12-19T14:01:51;6.10;99.90
2489;DHT22;1255;48.716;9.124;2022-12-19T14:04:26;6.00;99.90
2489;DHT22;1255;48.716;9.124;2022-12-19T14:06:57;6.00;99.90
2489;DHT22;1255;48.716;9.124;2022-12-19T14:09:27;5.90;99.90
2489;DHT22;1255;48.716;9.124;2022-12-19T14:11:57;5.90;99.90
2489;DHT22;1255;48.716;9.124;2022-12-19T14:14:27;5.80;99.90
2489;DHT22;1255;48.716;9.124;2022-12-19T14:17:14;5.80;99.90
2489;DHT22;1255;48.716;9.124;2022-12-19T14:19:43;5.70;99.90
2489;DHT22;1255;48.716;9.124;2022-12-19T14:22:11;5.70;99.90
2489;DHT22;1255;48.716;9.124;2022-12-19T14:24:39;5.70;99.90
2489;DHT22;1255;48.716;9.124;2022-12-19T14:27:10;5.60;99.90
2489;DHT22;1255;48.716;9.124;2022-12-19T14:29:43;5.60;99.90
2489;DHT22;1255;48.716;9.124;2022-12-19T14:32:12;5.60;99.90
2489;DHT22;1255;48.716;9.124;2022-12-19T14:34:40;5.60;99.90
2489;DHT22;1255;48.716;9.124;2022-12-19T14:37:26;5.50;99.90
2489;DHT22;1255;48.716;9.124;2022-12-19T14:39:57;5.50;99.90
2489;DHT22;1255;48.716;9.124;2022-12-19T14:42:25;5.50;99.90
2489;DHT22;1255;48.716;9.124;2022-12-19T14:45:35;5.50;99.90
2489;DHT22;1255;48.716;9.124;2022-12-19T14:48:26;5.50;99.90
2489;DHT22;1255;48.716;9.124;2022-12-19T14:51:08;5.50;99.90
2489;DHT22;1255;48.716;9.124;2022-12-19T14:53:37;5.30;99.90
2489;DHT22;1255;48.716;9.124;2022-12-19T14:56:05;5.30;99.90
2489;DHT22;1255;48.716;9.124;2022-12-19T14:58:36;5.20;99.90
2489;DHT22;1255;48.716;9.124;2022-12-19T15:01:17;5.00;99.90
2489;DHT22;1255;48.716;9.124;2022-12-19T15:03:50;4.90;99.90
2489;DHT22;1255;48.716;9.124;2022-12-19T15:06:19;4.70;99.90
2489;DHT22;1255;48.716;9.124;2022-12-19T15:08:49;4.70;99.90
2489;DHT22;1255;48.716;9.124;2022-12-19T15:11:25;4.70;99.90
2489;DHT22;1255;48.716;9.124;2022-12-19T15:14:10;4.60;99.90
2489;DHT22;1255;48.716;9.124;2022-12-19T15:16:38;4.50;99.90
2489;DHT22;1255;48.716;9.124;2022-12-19T15:19:10;4.40;99.90
2489;DHT22;1255;48.716;9.124;2022-12-19T15:21:37;4.30;99.90
2489;DHT22;1255;48.716;9.124;2022-12-19T15:24:04;4.20;99.90
2489;DHT22;1255;48.716;9.124;2022-12-19T15:26:33;4.20;99.90
2489;DHT22;1255;48.716;9.124;2022-12-19T15:29:01;4.00;99.90
2489;DHT22;1255;48.716;9.124;2022-12-19T15:31:32;4.00;99.90
2489;DHT22;1255;48.716;9.124;2022-12-19T15:34:04;3.90;99.90
2489;DHT22;1255;48.716;9.124;2022-12-19T15:36:37;3.70;99.90
2489;DHT22;1255;48.716;9.124;2022-12-19T15:39:04;3.70;99.90
2489;DHT22;1255;48.716;9.124;2022-12-19T15:41:31;3.60;99.90
2489;DHT22;1255;48.716;9.124;2022-12-19T15:43:58;3.50;99.90
2489;DHT22;1255;48.716;9.124;2022-12-19T15:46:29;3.40;99.90
2489;DHT22;1255;48.716;9.124;2022-12-19T15:48:56;3.40;99.90
2489;DHT22;1255;48.716;9.124;2022-12-19T15:51:24;3.30;99.90
2489;DHT22;1255;48.716;9.124;2022-12-19T15:53:51;3.30;99.90
2489;DHT22;1255;48.716;9.124;2022-12-19T15:56:24;3.20;99.90
2489;DHT22;1255;48.716;9.124;2022-12-19T15:58:53;3.20;99.90
2489;DHT22;1255;48.716;9.124;2022-12-19T16:01:21;3.20;99.90
2489;DHT22;1255;48.716;9.124;2022-12-19T16:03:49;3.20;99.90
2489;DHT22;1255;48.716;9.124;2022-12-19T16:06:15;3.10;99.90
2489;DHT22;1255;48.716;9.124;2022-12-19T16:08:43;3.00;99.90
2489;DHT22;1255;48.716;9.124;2022-12-19T16:11:16;3.00;99.90
2489;DHT22;1255;48.716;9.124;2022-12-19T16:13:45;2.90;99.90
2489;DHT22;1255;48.716;9.124;2022-12-19T16:16:13;2.90;99.90
2489;DHT22;1255;48.716;9.124;2022-12-19T16:18:39;2.90;99.90
2489;DHT22;1255;48.716;9.124;2022-12-19T16:21:16;2.80;99.90
2489;DHT22;1255;48.716;9.124;2022-12-19T16:23:44;2.80;99.90
2489;DHT22;1255;48.716;9.124;2022-12-19T16:26:20;2.70;99.90
2489;DHT22;1255;48.716;9.124;2022-12-19T16:28:50;2.80;99.90
2489;DHT22;1255;48.716;9.124;2022-12-19T16:31:22;2.90;99.90
2489;DHT22;1255;48.716;9.124;2022-12-19T16:33:49;3.00;99.90
2489;DHT22;1255;48.716;9.124;2022-12-19T16:36:16;3.10;99.90
2489;DHT22;1255;48.716;9.124;2022-12-19T16:38:44;3.20;99.90
2489;DHT22;1255;48.716;9.124;2022-12-19T16:41:14;3.20;99.90
2489;DHT22;1255;48.716;9.124;2022-12-19T16:43:42;3.20;99.90
2489;DHT22;1255;48.716;9.124;2022-12-19T16:46:15;3.20;99.90
2489;DHT22;1255;48.716;9.124;2022-12-19T16:48:42;3.20;99.90
2489;DHT22;1255;48.716;9.124;2022-12-19T16:51:16;3.30;99.90
2489;DHT22;1255;48.716;9.124;2022-12-19T16:53:45;3.40;99.90
2489;DHT22;1255;48.716;9.124;2022-12-19T16:56:28;3.40;99.90